sensor_id;sensor_type;location;lat;lon;timestamp;pressure;altitude;pressure_sealevel;temperature
49785;BMP280;35679;38.732;-121.358;2022-12-22T00:02:24;102117.22;;;11.86
49785;BMP280;35679;38.732;-121.358;2022-12-22T00:05:32;102126.94;;;11.85
49785;BMP280;35679;38.732;-121.358;2022-12-22T00:08:40;102124.28;;;11.85
49785;BMP280;35679;38.732;-121.358;2022-12-22T00:11:52;102129.47;;;11.87
49785;BMP280;35679;38.732;-121.358;2022-12-22T00:15:00;102118.19;;;11.85
49785;BMP280;35679;38.732;-121.358;2022-12-22T00:18:15;102105.13;;;11.83
49785;BMP280;35679;38.732;-121.358;2022-12-22T00:21:30;102096.22;;;11.84
49785;BMP280;35679;38.732;-121.358;2022-12-22T00:24:38;102096.22;;;11.84
49785;BMP280;35679;38.732;-121.358;2022-12-22T00:27:46;102096.22;;;11.84
49785;BMP280;35679;38.732;-121.358;2022-12-22T00:30:53;102087.56;;;11.82
49785;BMP280;35679;38.732;-121.358;2022-12-22T00:34:01;102080.47;;;11.83
49785;BMP280;35679;38.732;-121.358;2022-12-22T00:37:12;102072.53;;;11.83
49785;BMP280;35679;38.732;-121.358;2022-12-22T00:40:26;102071.69;;;11.82
49785;BMP280;35679;38.732;-121.358;2022-12-22T00:43:33;102070.72;;;11.83
49785;BMP280;35679;38.732;-121.358;2022-12-22T00:46:42;102060.31;;;11.82
49785;BMP280;35679;38.732;-121.358;2022-12-22T00:49:52;102058.63;;;11.81
49785;BMP280;35679;38.732;-121.358;2022-12-22T00:53:00;102070.03;;;11.81
49785;BMP280;35679;38.732;-121.358;2022-12-22T00:56:08;102068.09;;;11.83
49785;BMP280;35679;38.732;-121.358;2022-12-22T00:59:16;102070.88;;;11.82
49785;BMP280;35679;38.732;-121.358;2022-12-22T01:02:24;102060.31;;;11.82
49785;BMP280;35679;38.732;-121.358;2022-12-22T01:05:32;102059.44;;;11.81
49785;BMP280;35679;38.732;-121.358;2022-12-22T01:08:40;102063.06;;;11.80
49785;BMP280;35679;38.732;-121.358;2022-12-22T01:11:47;102064.72;;;11.81
49785;BMP280;35679;38.732;-121.358;2022-12-22T01:14:55;102058.78;;;11.79
49785;BMP280;35679;38.732;-121.358;2022-12-22T01:18:03;102058.91;;;11.78
49785;BMP280;35679;38.732;-121.358;2022-12-22T01:21:11;102061.41;;;11.79
49785;BMP280;35679;38.732;-121.358;2022-12-22T01:24:19;102059.75;;;11.78
49785;BMP280;35679;38.732;-121.358;2022-12-22T01:27:27;102059.59;;;11.80
49785;BMP280;35679;38.732;-121.358;2022-12-22T01:30:38;102057.22;;;11.77
49785;BMP280;35679;38.732;-121.358;2022-12-22T01:33:46;102039.56;;;11.77
49785;BMP280;35679;38.732;-121.358;2022-12-22T01:36:53;102041.34;;;11.77
49785;BMP280;35679;38.732;-121.358;2022-12-22T01:40:01;102042.47;;;11.75
49785;BMP280;35679;38.732;-121.358;2022-12-22T01:43:23;102053.91;;;11.75
49785;BMP280;35679;38.732;-121.358;2022-12-22T01:46:45;102059.03;;;11.77
49785;BMP280;35679;38.732;-121.358;2022-12-22T01:49:54;102052.22;;;11.74
49785;BMP280;35679;38.732;-121.358;2022-12-22T01:53:06;102061.13;;;11.73
49785;BMP280;35679;38.732;-121.358;2022-12-22T01:56:15;102055.84;;;11.73
49785;BMP280;35679;38.732;-121.358;2022-12-22T01:59:25;102056.69;;;11.74
49785;BMP280;35679;38.732;-121.358;2022-12-22T02:02:34;102052.38;;;11.73
49785;BMP280;35679;38.732;-121.358;2022-12-22T02:05:56;102045.25;;;11.73
49785;BMP280;35679;38.732;-121.358;2022-12-22T02:16:25;102055.28;;;11.70
49785;BMP280;35679;38.732;-121.358;2022-12-22T02:26:47;102064.34;;;11.67
49785;BMP280;35679;38.732;-121.358;2022-12-22T02:30:02;102044.19;;;11.66
49785;BMP280;35679;38.732;-121.358;2022-12-22T02:33:15;102047.09;;;11.63
49785;BMP280;35679;38.732;-121.358;2022-12-22T02:40:30;102049.75;;;11.63
49785;BMP280;35679;38.732;-121.358;2022-12-22T02:47:02;102048.22;;;11.61
49785;BMP280;35679;38.732;-121.358;2022-12-22T02:50:25;102050.03;;;11.60
49785;BMP280;35679;38.732;-121.358;2022-12-22T02:53:33;102056.28;;;11.59
49785;BMP280;35679;38.732;-121.358;2022-12-22T02:56:42;102055.31;;;11.60
49785;BMP280;35679;38.732;-121.358;2022-12-22T02:59:49;102049.19;;;11.60
49785;BMP280;35679;38.732;-121.358;2022-12-22T03:02:57;102049.19;;;11.60
49785;BMP280;35679;38.732;-121.358;2022-12-22T03:06:06;102053.78;;;11.58
49785;BMP280;35679;38.732;-121.358;2022-12-22T03:09:15;102054.63;;;11.58
49785;BMP280;35679;38.732;-121.358;2022-12-22T03:12:23;102059.91;;;11.58
49785;BMP280;35679;38.732;-121.358;2022-12-22T03:15:31;102062.41;;;11.60
49785;BMP280;35679;38.732;-121.358;2022-12-22T03:18:38;102061.59;;;11.59
49785;BMP280;35679;38.732;-121.358;2022-12-22T03:21:46;102070.63;;;11.57
49785;BMP280;35679;38.732;-121.358;2022-12-22T03:24:53;102060.88;;;11.57
49785;BMP280;35679;38.732;-121.358;2022-12-22T03:28:05;102068.13;;;11.55
49785;BMP280;35679;38.732;-121.358;2022-12-22T03:30:55;102069.66;;;11.58
49785;BMP280;35679;38.732;-121.358;2022-12-22T03:33:46;102065.34;;;11.57
49785;BMP280;35679;38.732;-121.358;2022-12-22T03:36:35;102061.88;;;11.56
49785;BMP280;35679;38.732;-121.358;2022-12-22T03:39:25;102061.88;;;11.56
49785;BMP280;35679;38.732;-121.358;2022-12-22T03:42:14;102062.00;;;11.55
49785;BMP280;35679;38.732;-121.358;2022-12-22T03:45:21;102062.00;;;11.55
49785;BMP280;35679;38.732;-121.358;2022-12-22T03:48:29;102068.13;;;11.55
49785;BMP280;35679;38.732;-121.358;2022-12-22T03:51:18;102071.59;;;11.56
49785;BMP280;35679;38.732;-121.358;2022-12-22T03:54:09;102073.53;;;11.54
49785;BMP280;35679;38.732;-121.358;2022-12-22T03:56:59;102076.06;;;11.55
49785;BMP280;35679;38.732;-121.358;2022-12-22T03:59:50;102070.88;;;11.54
49785;BMP280;35679;38.732;-121.358;2022-12-22T04:02:39;102071.75;;;11.54
49785;BMP280;35679;38.732;-121.358;2022-12-22T04:05:28;102069.91;;;11.55
49785;BMP280;35679;38.732;-121.358;2022-12-22T04:08:18;102062.28;;;11.52
49785;BMP280;35679;38.732;-121.358;2022-12-22T04:11:13;102058.69;;;11.53
49785;BMP280;35679;38.732;-121.358;2022-12-22T04:14:21;102054.34;;;11.52
49785;BMP280;35679;38.732;-121.358;2022-12-22T04:17:20;102056.84;;;11.53
49785;BMP280;35679;38.732;-121.358;2022-12-22T04:20:10;102051.72;;;11.52
49785;BMP280;35679;38.732;-121.358;2022-12-22T04:22:59;102053.50;;;11.51
49785;BMP280;35679;38.732;-121.358;2022-12-22T04:25:48;102058.91;;;11.50
49785;BMP280;35679;38.732;-121.358;2022-12-22T04:28:37;102054.50;;;11.50
49785;BMP280;35679;38.732;-121.358;2022-12-22T04:31:27;102051.72;;;11.52
49785;BMP280;35679;38.732;-121.358;2022-12-22T04:34:16;102051.94;;;11.49
49785;BMP280;35679;38.732;-121.358;2022-12-22T04:37:06;102056.25;;;11.50
49785;BMP280;35679;38.732;-121.358;2022-12-22T04:40:04;102060.63;;;11.51
49785;BMP280;35679;38.732;-121.358;2022-12-22T04:42:53;102072.13;;;11.50
49785;BMP280;35679;38.732;-121.358;2022-12-22T04:45:43;102075.50;;;11.52
49785;BMP280;35679;38.732;-121.358;2022-12-22T04:48:33;102075.66;;;11.50
49785;BMP280;35679;38.732;-121.358;2022-12-22T04:51:23;102067.72;;;11.50
49785;BMP280;35679;38.732;-121.358;2022-12-22T04:54:13;102062.53;;;11.49
49785;BMP280;35679;38.732;-121.358;2022-12-22T04:57:03;102059.06;;;11.48
49785;BMP280;35679;38.732;-121.358;2022-12-22T04:59:52;102067.81;;;11.49
49785;BMP280;35679;38.732;-121.358;2022-12-22T05:02:42;102067.72;;;11.50
49785;BMP280;35679;38.732;-121.358;2022-12-22T05:05:32;102073.09;;;11.49
49785;BMP280;35679;38.732;-121.358;2022-12-22T05:08:22;102071.44;;;11.48
49785;BMP280;35679;38.732;-121.358;2022-12-22T05:11:11;102080.34;;;11.47
49785;BMP280;35679;38.732;-121.358;2022-12-22T05:14:00;102085.34;;;11.50
49785;BMP280;35679;38.732;-121.358;2022-12-22T05:16:54;102072.28;;;11.48
49785;BMP280;35679;38.732;-121.358;2022-12-22T05:19:43;102075.06;;;11.47
49785;BMP280;35679;38.732;-121.358;2022-12-22T05:22:32;102066.97;;;11.48
49785;BMP280;35679;38.732;-121.358;2022-12-22T05:25:23;102063.53;;;11.48
49785;BMP280;35679;38.732;-121.358;2022-12-22T05:28:18;102069.78;;;11.47
49785;BMP280;35679;38.732;-121.358;2022-12-22T05:31:15;102068.66;;;11.49
49785;BMP280;35679;38.732;-121.358;2022-12-22T05:34:05;102074.09;;;11.48
49785;BMP280;35679;38.732;-121.358;2022-12-22T05:36:54;102076.72;;;11.48
49785;BMP280;35679;38.732;-121.358;2022-12-22T05:39:43;102075.06;;;11.47
49785;BMP280;35679;38.732;-121.358;2022-12-22T05:42:32;102068.81;;;11.48
49785;BMP280;35679;38.732;-121.358;2022-12-22T05:45:24;102068.81;;;11.48
49785;BMP280;35679;38.732;-121.358;2022-12-22T05:48:15;102073.25;;;11.47
49785;BMP280;35679;38.732;-121.358;2022-12-22T05:51:12;102070.59;;;11.47
49785;BMP280;35679;38.732;-121.358;2022-12-22T05:54:02;102060.16;;;11.46
49785;BMP280;35679;38.732;-121.358;2022-12-22T05:56:51;102059.34;;;11.45
49785;BMP280;35679;38.732;-121.358;2022-12-22T05:59:40;102058.34;;;11.46
49785;BMP280;35679;38.732;-121.358;2022-12-22T06:02:29;102054.06;;;11.45
49785;BMP280;35679;38.732;-121.358;2022-12-22T06:05:19;102060.31;;;11.44
49785;BMP280;35679;38.732;-121.358;2022-12-22T06:08:09;102053.06;;;11.46
49785;BMP280;35679;38.732;-121.358;2022-12-22T06:10:58;102060.16;;;11.46
49785;BMP280;35679;38.732;-121.358;2022-12-22T06:13:48;102054.06;;;11.45
49785;BMP280;35679;38.732;-121.358;2022-12-22T06:16:37;102055.84;;;11.45
49785;BMP280;35679;38.732;-121.358;2022-12-22T06:19:26;102062.81;;;11.46
49785;BMP280;35679;38.732;-121.358;2022-12-22T06:22:17;102064.63;;;11.45
49785;BMP280;35679;38.732;-121.358;2022-12-22T06:25:06;102057.53;;;11.46
49785;BMP280;35679;38.732;-121.358;2022-12-22T06:28:04;102060.16;;;11.46
49785;BMP280;35679;38.732;-121.358;2022-12-22T06:30:54;102057.53;;;11.46
49785;BMP280;35679;38.732;-121.358;2022-12-22T06:33:43;102033.88;;;11.44
49785;BMP280;35679;38.732;-121.358;2022-12-22T06:36:33;102033.88;;;11.44
49785;BMP280;35679;38.732;-121.358;2022-12-22T06:39:22;102040.84;;;11.45
49785;BMP280;35679;38.732;-121.358;2022-12-22T06:42:11;102037.34;;;11.45
49785;BMP280;35679;38.732;-121.358;2022-12-22T06:45:19;102049.59;;;11.46
49785;BMP280;35679;38.732;-121.358;2022-12-22T06:48:11;102053.22;;;11.45
49785;BMP280;35679;38.732;-121.358;2022-12-22T06:51:00;102052.38;;;11.44
49785;BMP280;35679;38.732;-121.358;2022-12-22T06:53:50;102055.84;;;11.45
49785;BMP280;35679;38.732;-121.358;2022-12-22T06:56:39;102050.56;;;11.45
49785;BMP280;35679;38.732;-121.358;2022-12-22T06:59:28;102047.91;;;11.45
49785;BMP280;35679;38.732;-121.358;2022-12-22T07:02:17;102047.25;;;11.43
49785;BMP280;35679;38.732;-121.358;2022-12-22T07:05:07;102041.09;;;11.42
49785;BMP280;35679;38.732;-121.358;2022-12-22T07:07:57;102035.81;;;11.42
49785;BMP280;35679;38.732;-121.358;2022-12-22T07:10:54;102035.69;;;11.44
49785;BMP280;35679;38.732;-121.358;2022-12-22T07:13:46;102035.81;;;11.42
49785;BMP280;35679;38.732;-121.358;2022-12-22T07:16:36;102043.59;;;11.44
49785;BMP280;35679;38.732;-121.358;2022-12-22T07:19:25;102040.97;;;11.44
49785;BMP280;35679;38.732;-121.358;2022-12-22T07:22:14;102033.03;;;11.44
49785;BMP280;35679;38.732;-121.358;2022-12-22T07:25:03;102019.97;;;11.42
49785;BMP280;35679;38.732;-121.358;2022-12-22T07:27:53;102016.34;;;11.43
49785;BMP280;35679;38.732;-121.358;2022-12-22T07:30:42;102012.88;;;11.43
49785;BMP280;35679;38.732;-121.358;2022-12-22T07:33:31;102005.06;;;11.41
49785;BMP280;35679;38.732;-121.358;2022-12-22T07:36:20;102014.69;;;11.42
49785;BMP280;35679;38.732;-121.358;2022-12-22T07:39:11;102026.22;;;11.41
49785;BMP280;35679;38.732;-121.358;2022-12-22T07:42:00;102019.97;;;11.42
49785;BMP280;35679;38.732;-121.358;2022-12-22T07:45:08;102019.16;;;11.42
49785;BMP280;35679;38.732;-121.358;2022-12-22T07:47:58;102023.56;;;11.41
49785;BMP280;35679;38.732;-121.358;2022-12-22T07:50:48;102028.88;;;11.41
49785;BMP280;35679;38.732;-121.358;2022-12-22T07:53:39;102017.47;;;11.41
49785;BMP280;35679;38.732;-121.358;2022-12-22T07:56:28;102013.00;;;11.41
49785;BMP280;35679;38.732;-121.358;2022-12-22T07:59:18;102006.09;;;11.40
49785;BMP280;35679;38.732;-121.358;2022-12-22T08:02:09;102011.38;;;11.40
49785;BMP280;35679;38.732;-121.358;2022-12-22T08:04:59;102010.50;;;11.40
49785;BMP280;35679;38.732;-121.358;2022-12-22T08:07:50;102011.38;;;11.40
49785;BMP280;35679;38.732;-121.358;2022-12-22T08:10:40;102017.47;;;11.41
49785;BMP280;35679;38.732;-121.358;2022-12-22T08:13:29;102002.72;;;11.38
49785;BMP280;35679;38.732;-121.358;2022-12-22T08:16:18;102004.41;;;11.39
49785;BMP280;35679;38.732;-121.358;2022-12-22T08:19:09;102000.78;;;11.40
49785;BMP280;35679;38.732;-121.358;2022-12-22T08:21:58;101996.31;;;11.41
49785;BMP280;35679;38.732;-121.358;2022-12-22T08:24:52;101982.28;;;11.40
49785;BMP280;35679;38.732;-121.358;2022-12-22T08:27:46;101983.25;;;11.39
49785;BMP280;35679;38.732;-121.358;2022-12-22T08:30:36;101990.22;;;11.40
49785;BMP280;35679;38.732;-121.358;2022-12-22T08:33:25;102001.47;;;11.42
49785;BMP280;35679;38.732;-121.358;2022-12-22T08:36:15;102005.94;;;11.42
49785;BMP280;35679;38.732;-121.358;2022-12-22T08:39:05;102006.75;;;11.42
49785;BMP280;35679;38.732;-121.358;2022-12-22T08:41:55;102002.44;;;11.41
49785;BMP280;35679;38.732;-121.358;2022-12-22T08:44:44;102006.09;;;11.40
49785;BMP280;35679;38.732;-121.358;2022-12-22T08:47:34;102010.50;;;11.40
49785;BMP280;35679;38.732;-121.358;2022-12-22T08:50:24;102011.47;;;11.39
49785;BMP280;35679;38.732;-121.358;2022-12-22T08:53:13;102011.22;;;11.42
49785;BMP280;35679;38.732;-121.358;2022-12-22T08:56:23;102002.59;;;11.40
49785;BMP280;35679;38.732;-121.358;2022-12-22T08:59:12;102005.53;;;11.37
49785;BMP280;35679;38.732;-121.358;2022-12-22T09:02:01;102002.59;;;11.40
49785;BMP280;35679;38.732;-121.358;2022-12-22T09:04:53;101998.28;;;11.39
49785;BMP280;35679;38.732;-121.358;2022-12-22T09:07:42;101994.81;;;11.38
49785;BMP280;35679;38.732;-121.358;2022-12-22T09:10:31;101994.81;;;11.38
49785;BMP280;35679;38.732;-121.358;2022-12-22T09:13:21;101986.06;;;11.38
49785;BMP280;35679;38.732;-121.358;2022-12-22T09:16:10;102000.78;;;11.40
49785;BMP280;35679;38.732;-121.358;2022-12-22T09:19:00;102000.66;;;11.42
49785;BMP280;35679;38.732;-121.358;2022-12-22T09:21:49;101999.78;;;11.41
49785;BMP280;35679;38.732;-121.358;2022-12-22T09:24:39;102006.09;;;11.40
49785;BMP280;35679;38.732;-121.358;2022-12-22T09:27:29;102009.53;;;11.41
49785;BMP280;35679;38.732;-121.358;2022-12-22T09:30:18;102010.25;;;11.43
49785;BMP280;35679;38.732;-121.358;2022-12-22T09:33:08;102019.16;;;11.42
49785;BMP280;35679;38.732;-121.358;2022-12-22T09:35:57;102022.91;;;11.39
49785;BMP280;35679;38.732;-121.358;2022-12-22T09:38:55;102027.22;;;11.40
49785;BMP280;35679;38.732;-121.358;2022-12-22T09:41:47;102031.50;;;11.41
49785;BMP280;35679;38.732;-121.358;2022-12-22T09:44:40;102029.72;;;11.42
49785;BMP280;35679;38.732;-121.358;2022-12-22T09:47:35;102028.03;;;11.41
49785;BMP280;35679;38.732;-121.358;2022-12-22T09:50:26;102028.03;;;11.41
49785;BMP280;35679;38.732;-121.358;2022-12-22T09:53:20;102036.13;;;11.39
49785;BMP280;35679;38.732;-121.358;2022-12-22T09:56:15;102032.63;;;11.39
49785;BMP280;35679;38.732;-121.358;2022-12-22T09:59:12;102035.25;;;11.39
49785;BMP280;35679;38.732;-121.358;2022-12-22T10:02:07;102047.50;;;11.40
49785;BMP280;35679;38.732;-121.358;2022-12-22T10:05:19;102035.97;;;11.41
49785;BMP280;35679;38.732;-121.358;2022-12-22T10:08:24;102041.09;;;11.42
49785;BMP280;35679;38.732;-121.358;2022-12-22T10:11:17;102035.00;;;11.42
49785;BMP280;35679;38.732;-121.358;2022-12-22T10:14:09;102035.97;;;11.41
49785;BMP280;35679;38.732;-121.358;2022-12-22T10:17:19;102036.13;;;11.39
49785;BMP280;35679;38.732;-121.358;2022-12-22T10:20:21;102029.00;;;11.40
49785;BMP280;35679;38.732;-121.358;2022-12-22T10:23:19;102027.06;;;11.42
49785;BMP280;35679;38.732;-121.358;2022-12-22T10:26:15;102023.56;;;11.41
49785;BMP280;35679;38.732;-121.358;2022-12-22T10:29:21;102022.91;;;11.39
49785;BMP280;35679;38.732;-121.358;2022-12-22T10:32:14;102015.78;;;11.40
49785;BMP280;35679;38.732;-121.358;2022-12-22T10:35:05;102016.75;;;11.39
49785;BMP280;35679;38.732;-121.358;2022-12-22T10:37:54;102022.06;;;11.39
49785;BMP280;35679;38.732;-121.358;2022-12-22T10:40:46;102014.13;;;11.39
49785;BMP280;35679;38.732;-121.358;2022-12-22T10:43:46;102024.69;;;11.39
49785;BMP280;35679;38.732;-121.358;2022-12-22T10:46:40;102032.63;;;11.39
49785;BMP280;35679;38.732;-121.358;2022-12-22T10:49:36;102031.66;;;11.40
49785;BMP280;35679;38.732;-121.358;2022-12-22T10:52:24;102015.94;;;11.38
49785;BMP280;35679;38.732;-121.358;2022-12-22T10:55:35;102012.47;;;11.38
49785;BMP280;35679;38.732;-121.358;2022-12-22T10:58:27;101996.63;;;11.38
49785;BMP280;35679;38.732;-121.358;2022-12-22T11:01:25;101995.91;;;11.36
49785;BMP280;35679;38.732;-121.358;2022-12-22T11:04:22;101986.88;;;11.38
49785;BMP280;35679;38.732;-121.358;2022-12-22T11:07:12;101988.69;;;11.38
49785;BMP280;35679;38.732;-121.358;2022-12-22T11:13:15;101978.25;;;11.36
49785;BMP280;35679;38.732;-121.358;2022-12-22T11:22:38;101973.97;;;11.35
49785;BMP280;35679;38.732;-121.358;2022-12-22T11:48:06;101926.25;;;11.37
49785;BMP280;35679;38.732;-121.358;2022-12-22T11:51:36;101916.66;;;11.36
49785;BMP280;35679;38.732;-121.358;2022-12-22T12:04:15;101900.78;;;11.36
49785;BMP280;35679;38.732;-121.358;2022-12-22T12:07:28;101903.44;;;11.36
49785;BMP280;35679;38.732;-121.358;2022-12-22T12:13:36;101916.78;;;11.34
49785;BMP280;35679;38.732;-121.358;2022-12-22T12:16:32;101921.94;;;11.36
49785;BMP280;35679;38.732;-121.358;2022-12-22T12:22:38;101918.59;;;11.34
49785;BMP280;35679;38.732;-121.358;2022-12-22T12:26:00;101911.50;;;11.34
49785;BMP280;35679;38.732;-121.358;2022-12-22T12:32:16;101911.38;;;11.36
49785;BMP280;35679;38.732;-121.358;2022-12-22T12:38:29;101916.78;;;11.34
49785;BMP280;35679;38.732;-121.358;2022-12-22T12:44:35;101910.66;;;11.34
49785;BMP280;35679;38.732;-121.358;2022-12-22T12:47:34;101910.66;;;11.34
49785;BMP280;35679;38.732;-121.358;2022-12-22T12:50:32;101923.75;;;11.35
49785;BMP280;35679;38.732;-121.358;2022-12-22T12:53:26;101915.13;;;11.33
49785;BMP280;35679;38.732;-121.358;2022-12-22T12:56:15;101916.78;;;11.34
49785;BMP280;35679;38.732;-121.358;2022-12-22T12:59:06;101910.53;;;11.35
49785;BMP280;35679;38.732;-121.358;2022-12-22T13:01:57;101904.41;;;11.35
49785;BMP280;35679;38.732;-121.358;2022-12-22T13:13:53;101914.31;;;11.33
49785;BMP280;35679;38.732;-121.358;2022-12-22T13:16:43;101912.47;;;11.33
49785;BMP280;35679;38.732;-121.358;2022-12-22T13:19:33;101905.38;;;11.34
49785;BMP280;35679;38.732;-121.358;2022-12-22T13:22:23;101914.97;;;11.35
49785;BMP280;35679;38.732;-121.358;2022-12-22T13:25:15;101914.31;;;11.33
49785;BMP280;35679;38.732;-121.358;2022-12-22T13:28:12;101910.66;;;11.34
49785;BMP280;35679;38.732;-121.358;2022-12-22T13:31:23;101912.31;;;11.35
49785;BMP280;35679;38.732;-121.358;2022-12-22T13:37:56;101887.88;;;11.33
49785;BMP280;35679;38.732;-121.358;2022-12-22T13:40:46;101891.34;;;11.33
49785;BMP280;35679;38.732;-121.358;2022-12-22T13:43:35;101893.00;;;11.34
49785;BMP280;35679;38.732;-121.358;2022-12-22T13:46:26;101900.09;;;11.34
49785;BMP280;35679;38.732;-121.358;2022-12-22T13:49:17;101912.47;;;11.33
49785;BMP280;35679;38.732;-121.358;2022-12-22T13:52:27;101926.50;;;11.34
49785;BMP280;35679;38.732;-121.358;2022-12-22T13:55:22;101917.91;;;11.32
49785;BMP280;35679;38.732;-121.358;2022-12-22T13:58:28;101909.03;;;11.33
49785;BMP280;35679;38.732;-121.358;2022-12-22T14:01:18;101909.03;;;11.33
49785;BMP280;35679;38.732;-121.358;2022-12-22T14:04:12;101916.78;;;11.34
49785;BMP280;35679;38.732;-121.358;2022-12-22T14:07:16;101920.25;;;11.35
49785;BMP280;35679;38.732;-121.358;2022-12-22T14:10:09;101911.78;;;11.31
49785;BMP280;35679;38.732;-121.358;2022-12-22T14:13:01;101910.66;;;11.34
49785;BMP280;35679;38.732;-121.358;2022-12-22T14:16:01;101922.22;;;11.33
49785;BMP280;35679;38.732;-121.358;2022-12-22T14:18:53;101924.88;;;11.33
49785;BMP280;35679;38.732;-121.358;2022-12-22T14:21:48;101913.44;;;11.32
49785;BMP280;35679;38.732;-121.358;2022-12-22T14:24:42;101933.78;;;11.32
49785;BMP280;35679;38.732;-121.358;2022-12-22T14:27:59;101941.69;;;11.32
49785;BMP280;35679;38.732;-121.358;2022-12-22T14:30:48;101923.19;;;11.32
49785;BMP280;35679;38.732;-121.358;2022-12-22T14:33:38;101925.13;;;11.30
49785;BMP280;35679;38.732;-121.358;2022-12-22T14:36:38;101940.72;;;11.33
49785;BMP280;35679;38.732;-121.358;2022-12-22T14:39:33;101939.88;;;11.32
49785;BMP280;35679;38.732;-121.358;2022-12-22T14:42:22;101945.16;;;11.32
49785;BMP280;35679;38.732;-121.358;2022-12-22T14:45:15;101932.91;;;11.31
49785;BMP280;35679;38.732;-121.358;2022-12-22T14:48:08;101939.72;;;11.34
49785;BMP280;35679;38.732;-121.358;2022-12-22T14:51:00;101940.56;;;11.34
49785;BMP280;35679;38.732;-121.358;2022-12-22T14:53:55;101938.91;;;11.33
49785;BMP280;35679;38.732;-121.358;2022-12-22T14:56:48;101944.34;;;11.32
49785;BMP280;35679;38.732;-121.358;2022-12-22T14:59:38;101950.59;;;11.31
49785;BMP280;35679;38.732;-121.358;2022-12-22T15:02:37;101946.81;;;11.33
49785;BMP280;35679;38.732;-121.358;2022-12-22T15:05:37;101939.06;;;11.32
49785;BMP280;35679;38.732;-121.358;2022-12-22T15:08:41;101935.44;;;11.33
49785;BMP280;35679;38.732;-121.358;2022-12-22T15:11:37;101935.72;;;11.30
49785;BMP280;35679;38.732;-121.358;2022-12-22T15:14:29;101945.31;;;11.31
49785;BMP280;35679;38.732;-121.358;2022-12-22T15:17:25;101948.66;;;11.33
49785;BMP280;35679;38.732;-121.358;2022-12-22T15:20:21;101933.78;;;11.32
49785;BMP280;35679;38.732;-121.358;2022-12-22T15:23:13;101943.63;;;11.30
49785;BMP280;35679;38.732;-121.358;2022-12-22T15:26:04;101946.97;;;11.32
49785;BMP280;35679;38.732;-121.358;2022-12-22T15:28:54;101947.09;;;11.30
49785;BMP280;35679;38.732;-121.358;2022-12-22T15:31:44;101952.53;;;11.29
49785;BMP280;35679;38.732;-121.358;2022-12-22T15:34:33;101939.31;;;11.29
49785;BMP280;35679;38.732;-121.358;2022-12-22T15:37:22;101957.66;;;11.30
49785;BMP280;35679;38.732;-121.358;2022-12-22T15:40:18;101962.13;;;11.30
49785;BMP280;35679;38.732;-121.358;2022-12-22T15:43:08;101960.19;;;11.32
49785;BMP280;35679;38.732;-121.358;2022-12-22T15:46:18;101956.03;;;11.29
49785;BMP280;35679;38.732;-121.358;2022-12-22T15:49:17;101958.53;;;11.31
49785;BMP280;35679;38.732;-121.358;2022-12-22T15:52:09;101962.13;;;11.30
49785;BMP280;35679;38.732;-121.358;2022-12-22T15:55:00;101969.09;;;11.31
49785;BMP280;35679;38.732;-121.358;2022-12-22T15:57:52;101952.38;;;11.30
49785;BMP280;35679;38.732;-121.358;2022-12-22T16:00:43;101955.88;;;11.31
49785;BMP280;35679;38.732;-121.358;2022-12-22T16:03:32;101968.38;;;11.29
49785;BMP280;35679;38.732;-121.358;2022-12-22T16:06:21;101970.06;;;11.30
49785;BMP280;35679;38.732;-121.358;2022-12-22T16:09:26;101969.09;;;11.31
49785;BMP280;35679;38.732;-121.358;2022-12-22T16:12:18;101963.09;;;11.29
49785;BMP280;35679;38.732;-121.358;2022-12-22T16:15:12;101957.66;;;11.30
49785;BMP280;35679;38.732;-121.358;2022-12-22T16:18:02;101958.53;;;11.31
49785;BMP280;35679;38.732;-121.358;2022-12-22T16:20:51;101969.91;;;11.31
49785;BMP280;35679;38.732;-121.358;2022-12-22T16:23:41;101963.81;;;11.31
49785;BMP280;35679;38.732;-121.358;2022-12-22T16:26:32;101956.69;;;11.31
49785;BMP280;35679;38.732;-121.358;2022-12-22T16:29:24;101943.50;;;11.31
49785;BMP280;35679;38.732;-121.358;2022-12-22T16:32:22;101939.16;;;11.30
49785;BMP280;35679;38.732;-121.358;2022-12-22T16:35:13;101943.50;;;11.31
49785;BMP280;35679;38.732;-121.358;2022-12-22T16:38:02;101929.16;;;11.34
49785;BMP280;35679;38.732;-121.358;2022-12-22T16:40:52;101960.19;;;11.32
49785;BMP280;35679;38.732;-121.358;2022-12-22T16:43:41;101962.69;;;11.33
49785;BMP280;35679;38.732;-121.358;2022-12-22T16:46:37;101968.78;;;11.34
49785;BMP280;35679;38.732;-121.358;2022-12-22T16:49:26;101972.44;;;11.33
49785;BMP280;35679;38.732;-121.358;2022-12-22T16:52:36;101994.53;;;11.32
49785;BMP280;35679;38.732;-121.358;2022-12-22T16:55:27;102000.66;;;11.32
49785;BMP280;35679;38.732;-121.358;2022-12-22T16:58:16;102010.41;;;11.32
49785;BMP280;35679;38.732;-121.358;2022-12-22T17:01:05;102008.56;;;11.32
49785;BMP280;35679;38.732;-121.358;2022-12-22T17:03:55;102000.66;;;11.32
49785;BMP280;35679;38.732;-121.358;2022-12-22T17:06:47;101999.81;;;11.32
49785;BMP280;35679;38.732;-121.358;2022-12-22T17:09:58;101986.63;;;11.32
49785;BMP280;35679;38.732;-121.358;2022-12-22T17:12:54;101995.22;;;11.34
49785;BMP280;35679;38.732;-121.358;2022-12-22T17:15:44;101991.59;;;11.35
49785;BMP280;35679;38.732;-121.358;2022-12-22T17:18:34;101998.00;;;11.32
49785;BMP280;35679;38.732;-121.358;2022-12-22T17:21:24;102001.50;;;11.33
49785;BMP280;35679;38.732;-121.358;2022-12-22T17:24:16;101995.22;;;11.34
49785;BMP280;35679;38.732;-121.358;2022-12-22T17:27:15;102000.50;;;11.34
49785;BMP280;35679;38.732;-121.358;2022-12-22T17:30:13;101996.06;;;11.34
49785;BMP280;35679;38.732;-121.358;2022-12-22T17:33:07;101991.59;;;11.35